createdAt,value
2018-06-05T00:00:19.658Z,0
2018-06-05T00:01:20.387Z,0
2018-06-05T00:02:21.101Z,0
2018-06-05T00:03:21.828Z,0
2018-06-05T00:04:22.543Z,0
2018-06-05T00:05:23.257Z,0
2018-06-05T00:06:23.973Z,0
2018-06-05T00:07:24.687Z,0
2018-06-05T00:08:25.410Z,0
2018-06-05T00:09:26.138Z,0
2018-06-05T00:10:26.860Z,0
2018-06-05T00:11:27.578Z,0
2018-06-05T00:12:28.293Z,0
2018-06-05T00:13:29.009Z,0
2018-06-05T00:14:29.735Z,0
2018-06-05T00:15:30.453Z,0
2018-06-05T00:16:31.166Z,0
2018-06-05T00:17:31.898Z,0
2018-06-05T00:18:32.620Z,0
2018-06-05T00:19:33.334Z,0
2018-06-05T00:20:34.050Z,0
2018-06-05T00:21:34.765Z,0
2018-06-05T00:22:35.480Z,0
2018-06-05T00:23:36.196Z,0
2018-06-05T00:24:36.911Z,0
2018-06-05T00:25:37.626Z,0
2018-06-05T00:26:38.341Z,0
2018-06-05T00:27:39.073Z,0
2018-06-05T00:28:39.785Z,0
2018-06-05T00:29:40.501Z,0
2018-06-05T00:30:41.215Z,0
2018-06-05T00:31:41.930Z,0
2018-06-05T00:32:42.647Z,0
2018-06-05T00:33:43.361Z,0
2018-06-05T00:34:44.077Z,0
2018-06-05T00:35:44.803Z,0
2018-06-05T00:36:45.515Z,0
2018-06-05T00:37:46.230Z,0
2018-06-05T00:38:46.942Z,0
2018-06-05T00:39:47.656Z,0
2018-06-05T00:40:48.369Z,0
2018-06-05T00:41:49.084Z,0
2018-06-05T00:42:49.797Z,0
2018-06-05T00:43:50.513Z,0
2018-06-05T00:44:51.226Z,0
2018-06-05T00:45:51.941Z,0
2018-06-05T00:46:52.656Z,0
2018-06-05T00:47:53.381Z,0
2018-06-05T00:48:54.097Z,0
2018-06-05T00:49:54.812Z,0
2018-06-05T00:50:55.538Z,0
2018-06-05T00:51:56.254Z,0
2018-06-05T00:52:56.967Z,0
2018-06-05T00:53:57.695Z,0
2018-06-05T00:54:58.410Z,0
2018-06-05T00:55:59.125Z,0
2018-06-05T00:56:59.870Z,0
2018-06-05T00:58:00.594Z,0
2018-06-05T00:59:01.309Z,0
2018-06-05T01:00:02.034Z,0
2018-06-05T01:01:02.749Z,0
2018-06-05T01:02:03.462Z,0
2018-06-05T01:03:04.190Z,0
2018-06-05T01:04:04.903Z,0
2018-06-05T01:05:05.620Z,0
2018-06-05T01:06:06.347Z,0
2018-06-05T01:07:07.061Z,0
2018-06-05T01:08:07.781Z,0
2018-06-05T01:09:08.494Z,0
2018-06-05T01:10:09.210Z,0
2018-06-05T01:11:09.935Z,0
2018-06-05T01:12:10.648Z,0
2018-06-05T01:13:11.363Z,0
2018-06-05T01:14:12.079Z,0
2018-06-05T01:15:12.803Z,0
2018-06-05T01:16:13.518Z,0
2018-06-05T01:17:14.232Z,0
2018-06-05T01:18:14.947Z,0
2018-06-05T01:19:15.661Z,0
2018-06-05T01:20:16.375Z,0
2018-06-05T01:21:17.089Z,0
2018-06-05T01:22:17.804Z,0
2018-06-05T01:23:18.519Z,0
2018-06-05T01:24:19.233Z,0
2018-06-05T01:25:19.948Z,0
2018-06-05T01:26:20.665Z,0
2018-06-05T01:27:21.392Z,0
2018-06-05T01:28:22.118Z,0
2018-06-05T01:29:22.831Z,0
2018-06-05T01:30:23.556Z,0
2018-06-05T01:31:24.282Z,0
2018-06-05T01:32:25.007Z,0
2018-06-05T01:33:25.724Z,0
2018-06-05T01:34:26.440Z,0
2018-06-05T01:35:27.154Z,0
2018-06-05T01:36:27.869Z,0
2018-06-05T01:37:28.584Z,0
2018-06-05T01:38:29.302Z,0
2018-06-05T01:39:30.023Z,0
2018-06-05T01:40:30.749Z,0
2018-06-05T01:41:31.462Z,0
2018-06-05T01:42:32.175Z,0
2018-06-05T01:43:32.900Z,0
2018-06-05T01:44:33.628Z,0
2018-06-05T01:45:34.341Z,0
2018-06-05T01:46:35.056Z,0
2018-06-05T01:47:35.769Z,0
2018-06-05T01:48:36.486Z,0
2018-06-05T01:49:37.200Z,0
2018-06-05T01:50:37.914Z,0
2018-06-05T01:51:38.628Z,0
2018-06-05T01:52:39.351Z,0
2018-06-05T01:53:40.076Z,0
2018-06-05T01:54:40.801Z,0
2018-06-05T01:55:41.528Z,0
2018-06-05T01:56:42.242Z,0
2018-06-05T01:57:42.967Z,0
2018-06-05T01:58:43.680Z,0
2018-06-05T01:59:44.393Z,0
2018-06-05T02:00:45.105Z,0
2018-06-05T02:01:45.819Z,0
2018-06-05T02:02:46.534Z,0
2018-06-05T02:03:47.246Z,0
2018-06-05T02:04:47.959Z,0
2018-06-05T02:05:48.686Z,0
2018-06-05T02:06:49.400Z,0
2018-06-05T02:07:50.126Z,0
2018-06-05T02:08:50.841Z,0
2018-06-05T02:09:51.568Z,0
2018-06-05T02:10:52.284Z,0
2018-06-05T02:11:53.010Z,0
2018-06-05T02:12:53.722Z,0
2018-06-05T02:13:54.436Z,0
2018-06-05T02:14:55.149Z,0
2018-06-05T02:15:55.876Z,0
2018-06-05T02:16:56.589Z,0
2018-06-05T02:17:57.303Z,0
2018-06-05T02:18:58.017Z,0
2018-06-05T02:19:58.729Z,0
2018-06-05T02:20:59.454Z,0
2018-06-05T02:22:00.168Z,0
2018-06-05T02:23:00.880Z,0
2018-06-05T02:24:01.597Z,0
2018-06-05T02:25:02.308Z,0
2018-06-05T02:26:03.021Z,0
2018-06-05T02:27:03.735Z,0
2018-06-05T02:28:04.446Z,0
2018-06-05T02:29:05.173Z,0
2018-06-05T02:30:05.899Z,0
2018-06-05T02:31:06.613Z,0
2018-06-05T02:32:07.327Z,0
2018-06-05T02:33:08.041Z,0
2018-06-05T02:34:08.756Z,0
2018-06-05T02:35:09.471Z,0
2018-06-05T02:36:10.182Z,0
2018-06-05T02:37:10.906Z,0
2018-06-05T02:38:11.621Z,0
2018-06-05T02:39:12.344Z,0
2018-06-05T02:40:13.058Z,0
2018-06-05T02:41:13.769Z,0
2018-06-05T02:42:14.484Z,0
2018-06-05T02:43:15.196Z,0
2018-06-05T02:44:15.913Z,0
2018-06-05T02:45:16.634Z,4
2018-06-05T02:46:17.347Z,4
2018-06-05T02:47:18.074Z,4
2018-06-05T02:48:18.789Z,0
2018-06-05T02:49:19.513Z,0
2018-06-05T02:50:20.226Z,4
2018-06-05T02:51:20.950Z,4
2018-06-05T02:52:21.665Z,4
2018-06-05T02:53:22.378Z,4
2018-06-05T02:54:23.093Z,4
2018-06-05T02:55:23.806Z,8
2018-06-05T02:56:24.524Z,4
2018-06-05T02:57:25.244Z,8
2018-06-05T02:58:25.959Z,8
2018-06-05T02:59:26.669Z,8
2018-06-05T03:00:27.396Z,8
2018-06-05T03:01:28.137Z,12
2018-06-05T03:02:28.846Z,12
2018-06-05T03:03:29.567Z,16
2018-06-05T03:04:30.282Z,16
2018-06-05T03:05:30.993Z,16
2018-06-05T03:06:31.707Z,20
2018-06-05T03:07:32.436Z,20
2018-06-05T03:08:33.154Z,24
2018-06-05T03:09:33.867Z,24
2018-06-05T03:10:34.584Z,28
2018-06-05T03:11:35.300Z,28
2018-06-05T03:12:36.016Z,32
2018-06-05T03:13:36.730Z,36
2018-06-05T03:14:37.445Z,36
2018-06-05T03:15:38.159Z,40
2018-06-05T03:16:38.873Z,44
2018-06-05T03:17:39.588Z,44
2018-06-05T03:18:40.313Z,48
2018-06-05T03:19:41.028Z,52
2018-06-05T03:20:41.744Z,52
2018-06-05T03:21:42.459Z,60
2018-06-05T03:22:43.188Z,64
2018-06-05T03:23:43.964Z,68
2018-06-05T03:24:44.630Z,64
2018-06-05T03:25:45.344Z,64
2018-06-05T03:26:46.059Z,68
2018-06-05T03:27:46.784Z,68
2018-06-05T03:28:47.497Z,72
2018-06-05T03:29:48.211Z,72
2018-06-05T03:30:48.926Z,76
2018-06-05T03:31:49.640Z,80
2018-06-05T03:32:50.354Z,88
2018-06-05T03:33:51.088Z,96
2018-06-05T03:34:51.808Z,96
2018-06-05T03:35:52.537Z,96
2018-06-05T03:36:53.251Z,100
2018-06-05T03:37:53.982Z,108
2018-06-05T03:38:54.695Z,116
2018-06-05T03:39:55.412Z,124
2018-06-05T03:40:56.144Z,132
2018-06-05T03:41:56.868Z,136
2018-06-05T03:42:57.582Z,144
2018-06-05T03:43:58.294Z,152
2018-06-05T03:44:59.008Z,160
2018-06-05T03:45:59.723Z,172
2018-06-05T03:47:00.441Z,172
2018-06-05T03:48:01.150Z,176
2018-06-05T03:49:01.880Z,176
2018-06-05T03:50:02.597Z,180
2018-06-05T03:51:03.312Z,192
2018-06-05T03:52:04.040Z,204
2018-06-05T03:53:04.767Z,216
2018-06-05T03:54:05.495Z,224
2018-06-05T03:55:06.212Z,224
2018-06-05T03:56:06.937Z,224
2018-06-05T03:57:07.665Z,224
2018-06-05T03:58:08.396Z,224
2018-06-05T03:59:09.113Z,232
2018-06-05T04:00:09.828Z,244
2018-06-05T04:01:10.545Z,256
2018-06-05T04:02:11.271Z,256
2018-06-05T04:03:11.985Z,264
2018-06-05T04:04:12.714Z,280
2018-06-05T04:05:13.431Z,296
2018-06-05T04:06:14.148Z,308
2018-06-05T04:07:14.877Z,316
2018-06-05T04:08:15.593Z,312
2018-06-05T04:09:16.322Z,316
2018-06-05T04:10:17.041Z,316
2018-06-05T04:11:17.758Z,328
2018-06-05T04:12:18.476Z,348
2018-06-05T04:13:19.192Z,348
2018-06-05T04:14:19.907Z,340
2018-06-05T04:15:20.623Z,356
2018-06-05T04:16:21.351Z,368
2018-06-05T04:17:22.068Z,372
2018-06-05T04:18:22.793Z,384
2018-06-05T04:19:23.502Z,392
2018-06-05T04:20:24.233Z,404
2018-06-05T04:21:24.951Z,404
2018-06-05T04:22:25.668Z,416
2018-06-05T04:23:26.385Z,428
2018-06-05T04:24:27.100Z,440
2018-06-05T04:25:27.818Z,464
2018-06-05T04:26:28.535Z,480
2018-06-05T04:27:29.254Z,500
2018-06-05T04:28:29.980Z,532
2018-06-05T04:29:30.695Z,552
2018-06-05T04:30:31.422Z,568
2018-06-05T04:31:32.139Z,572
2018-06-05T04:32:32.856Z,572
2018-06-05T04:33:33.572Z,564
2018-06-05T04:34:34.307Z,572
2018-06-05T04:35:35.024Z,580
2018-06-05T04:36:35.744Z,588
2018-06-05T04:37:36.472Z,596
2018-06-05T04:38:37.187Z,600
2018-06-05T04:39:37.905Z,608
2018-06-05T04:40:38.636Z,656
2018-06-05T04:41:39.389Z,672
2018-06-05T04:42:40.112Z,684
2018-06-05T04:43:40.824Z,708
2018-06-05T04:44:41.541Z,752
2018-06-05T04:45:42.256Z,796
2018-06-05T04:46:42.979Z,800
2018-06-05T04:47:43.698Z,780
2018-06-05T04:48:44.409Z,808
2018-06-05T04:49:45.127Z,836
2018-06-05T04:50:45.843Z,848
2018-06-05T04:51:46.560Z,856
2018-06-05T04:52:47.280Z,840
2018-06-05T04:53:48.006Z,780
2018-06-05T04:54:48.733Z,748
2018-06-05T04:55:49.449Z,748
2018-06-05T04:56:50.170Z,772
2018-06-05T04:57:50.896Z,796
2018-06-05T04:58:51.612Z,816
2018-06-05T04:59:52.328Z,824
2018-06-05T05:00:53.063Z,824
2018-06-05T05:01:53.779Z,828
2018-06-05T05:02:54.498Z,844
2018-06-05T05:03:55.242Z,876
2018-06-05T05:04:55.966Z,908
2018-06-05T05:05:56.685Z,912
2018-06-05T05:06:57.406Z,920
2018-06-05T05:07:58.123Z,952
2018-06-05T05:08:58.842Z,980
2018-06-05T05:09:59.570Z,1020
2018-06-05T05:11:00.289Z,1048
2018-06-05T05:12:01.006Z,1056
2018-06-05T05:13:01.725Z,1056
2018-06-05T05:14:02.444Z,1072
2018-06-05T05:15:03.162Z,1096
2018-06-05T05:16:03.880Z,1128
2018-06-05T05:17:04.608Z,1148
2018-06-05T05:18:05.327Z,1160
2018-06-05T05:19:06.069Z,1164
2018-06-05T05:20:06.771Z,1176
2018-06-05T05:21:07.489Z,1204
2018-06-05T05:22:08.206Z,1252
2018-06-05T05:23:08.924Z,1288
2018-06-05T05:24:09.641Z,1304
2018-06-05T05:25:10.363Z,1316
2018-06-05T05:26:11.078Z,1312
2018-06-05T05:27:11.807Z,1308
2018-06-05T05:28:12.526Z,1324
2018-06-05T05:29:13.248Z,1344
2018-06-05T05:30:13.961Z,1356
2018-06-05T05:31:14.691Z,1364
2018-06-05T05:32:15.410Z,1380
2018-06-05T05:33:16.140Z,1388
2018-06-05T05:34:16.857Z,1396
2018-06-05T05:35:17.575Z,1424
2018-06-05T05:36:18.295Z,1440
2018-06-05T05:37:19.027Z,1432
2018-06-05T05:38:19.748Z,1412
2018-06-05T05:39:20.464Z,1416
2018-06-05T05:40:21.193Z,1448
2018-06-05T05:41:21.915Z,1476
2018-06-05T05:42:22.648Z,1500
2018-06-05T05:43:23.364Z,1524
2018-06-05T05:44:24.082Z,1560
2018-06-05T05:45:24.800Z,1604
2018-06-05T05:46:25.520Z,1652
2018-06-05T05:47:26.248Z,1680
2018-06-05T05:48:26.969Z,1680
2018-06-05T05:49:27.689Z,1692
2018-06-05T05:50:28.406Z,1700
2018-06-05T05:51:29.124Z,1712
2018-06-05T05:52:29.843Z,1716
2018-06-05T05:53:30.561Z,1736
2018-06-05T05:54:31.306Z,1732
2018-06-05T05:55:32.020Z,1740
2018-06-05T05:56:32.732Z,1772
2018-06-05T05:57:33.447Z,1800
2018-06-05T05:58:34.165Z,1840
2018-06-05T05:59:34.895Z,1880
2018-06-05T06:00:35.611Z,1916
2018-06-05T06:01:36.333Z,1984
2018-06-05T06:02:37.050Z,2048
2018-06-05T06:03:37.779Z,2104
2018-06-05T06:04:38.501Z,2132
2018-06-05T06:05:39.231Z,2180
2018-06-05T06:06:39.949Z,2196
2018-06-05T06:07:40.670Z,2180
2018-06-05T06:08:41.391Z,2188
2018-06-05T06:09:42.117Z,2176
2018-06-05T06:10:42.849Z,2140
2018-06-05T06:11:43.567Z,2100
2018-06-05T06:12:44.285Z,2092
2018-06-05T06:13:45.014Z,2092
2018-06-05T06:14:45.732Z,2096
2018-06-05T06:15:46.449Z,2116
2018-06-05T06:16:47.168Z,2160
2018-06-05T06:17:47.887Z,2232
2018-06-05T06:18:48.608Z,2304
2018-06-05T06:19:49.336Z,2400
2018-06-05T06:20:50.054Z,2408
2018-06-05T06:21:50.780Z,2404
2018-06-05T06:22:51.499Z,2412
2018-06-05T06:23:52.218Z,2360
2018-06-05T06:24:52.949Z,2292
2018-06-05T06:25:53.685Z,2248
2018-06-05T06:26:54.419Z,2236
2018-06-05T06:27:55.128Z,2264
2018-06-05T06:28:55.846Z,2360
2018-06-05T06:29:56.565Z,2432
2018-06-05T06:30:57.283Z,2488
2018-06-05T06:31:58.001Z,2496
2018-06-05T06:32:58.727Z,2524
2018-06-05T06:33:59.439Z,2512
2018-06-05T06:35:00.169Z,2500
2018-06-05T06:36:00.888Z,2476
2018-06-05T06:37:01.610Z,2472
2018-06-05T06:38:02.337Z,2436
2018-06-05T06:39:03.054Z,2396
2018-06-05T06:40:03.776Z,2388
2018-06-05T06:41:04.548Z,2400
2018-06-05T06:42:05.269Z,2392
2018-06-05T06:43:05.984Z,2376
2018-06-05T06:44:06.714Z,2356
2018-06-05T06:45:07.433Z,2344
2018-06-05T06:46:08.163Z,2348
2018-06-05T06:47:08.893Z,2348
2018-06-05T06:48:09.613Z,2364
2018-06-05T06:49:10.334Z,2376
2018-06-05T06:50:11.051Z,2396
2018-06-05T06:51:11.770Z,2448
2018-06-05T06:52:12.499Z,2500
2018-06-05T06:53:13.221Z,2524
2018-06-05T06:54:13.953Z,2540
2018-06-05T06:55:14.669Z,2548
2018-06-05T06:56:15.386Z,2552
2018-06-05T06:57:16.109Z,2552
2018-06-05T06:58:16.823Z,2556
2018-06-05T06:59:17.543Z,2584
2018-06-05T07:00:18.263Z,2620
2018-06-05T07:01:18.994Z,2640
2018-06-05T07:02:19.713Z,2672
2018-06-05T07:03:20.431Z,2724
2018-06-05T07:04:21.160Z,2768
2018-06-05T07:05:21.878Z,2804
2018-06-05T07:06:22.598Z,2808
2018-06-05T07:07:23.317Z,2816
2018-06-05T07:08:24.038Z,2824
2018-06-05T07:09:24.757Z,2800
2018-06-05T07:10:25.475Z,2796
2018-06-05T07:11:26.194Z,2792
2018-06-05T07:12:26.914Z,2780
2018-06-05T07:13:27.632Z,2748
2018-06-05T07:14:28.350Z,2776
2018-06-05T07:15:29.084Z,2800
2018-06-05T07:16:29.814Z,2808
2018-06-05T07:17:30.532Z,2804
2018-06-05T07:18:31.251Z,2836
2018-06-05T07:19:31.969Z,2880
2018-06-05T07:20:32.692Z,2912
2018-06-05T07:21:33.417Z,2964
2018-06-05T07:22:34.135Z,3016
2018-06-05T07:23:34.852Z,3048
2018-06-05T07:24:35.584Z,3028
2018-06-05T07:25:36.302Z,3000
2018-06-05T07:26:37.022Z,2956
2018-06-05T07:27:37.750Z,2916
2018-06-05T07:28:38.469Z,2928
2018-06-05T07:29:39.188Z,2992
2018-06-05T07:30:39.907Z,3052
2018-06-05T07:31:40.626Z,3164
2018-06-05T07:32:41.344Z,3308
2018-06-05T07:33:42.063Z,3452
2018-06-05T07:34:42.794Z,3516
2018-06-05T07:35:43.528Z,3604
2018-06-05T07:36:44.244Z,3628
2018-06-05T07:37:44.964Z,3640
2018-06-05T07:38:45.686Z,3684
2018-06-05T07:39:46.404Z,3772
2018-06-05T07:40:47.136Z,3876
2018-06-05T07:41:47.858Z,3824
2018-06-05T07:42:48.590Z,3840
2018-06-05T07:43:49.321Z,3776
2018-06-05T07:44:50.042Z,3752
2018-06-05T07:45:50.773Z,3756
2018-06-05T07:46:51.493Z,3820
2018-06-05T07:47:52.212Z,3932
2018-06-05T07:48:52.942Z,4120
2018-06-05T07:49:53.683Z,4308
2018-06-05T07:50:54.393Z,4452
2018-06-05T07:51:55.113Z,4616
2018-06-05T07:52:55.846Z,4784
2018-06-05T07:53:56.566Z,4728
2018-06-05T07:54:57.284Z,4540
2018-06-05T07:55:58.015Z,4464
2018-06-05T07:56:58.745Z,4464
2018-06-05T07:57:59.477Z,4488
2018-06-05T07:59:00.198Z,4508
2018-06-05T08:00:00.919Z,4540
2018-06-05T08:01:01.640Z,4600
2018-06-05T08:02:02.360Z,4628
2018-06-05T08:03:03.081Z,4680
2018-06-05T08:04:03.814Z,4724
2018-06-05T08:05:04.544Z,4684
2018-06-05T08:06:05.264Z,4732
2018-06-05T08:07:05.986Z,4696
2018-06-05T08:08:06.706Z,4780
2018-06-05T08:09:07.427Z,4908
2018-06-05T08:10:08.146Z,5036
2018-06-05T08:11:08.866Z,4992
2018-06-05T08:12:09.588Z,4896
2018-06-05T08:13:10.307Z,4832
2018-06-05T08:14:11.040Z,4692
2018-06-05T08:15:11.761Z,4584
2018-06-05T08:16:12.480Z,4632
2018-06-05T08:17:13.211Z,4688
2018-06-05T08:18:13.931Z,4808
2018-06-05T08:19:14.654Z,4876
2018-06-05T08:20:15.387Z,4816
2018-06-05T08:21:16.108Z,4820
2018-06-05T08:22:16.828Z,4868
2018-06-05T08:23:17.561Z,4856
2018-06-05T08:24:18.282Z,4832
2018-06-05T08:25:19.001Z,4788
2018-06-05T08:26:19.721Z,4844
2018-06-05T08:27:20.443Z,5008
2018-06-05T08:28:21.161Z,5136
2018-06-05T08:29:21.893Z,5224
2018-06-05T08:30:22.613Z,5228
2018-06-05T08:31:23.332Z,5196
2018-06-05T08:32:24.064Z,5132
2018-06-05T08:33:24.785Z,5104
2018-06-05T08:34:25.504Z,5156
2018-06-05T08:35:26.225Z,5172
2018-06-05T08:36:26.951Z,5012
2018-06-05T08:37:27.665Z,4932
2018-06-05T08:38:28.388Z,5040
2018-06-05T08:39:29.104Z,5312
2018-06-05T08:40:29.825Z,5356
2018-06-05T08:41:30.545Z,5216
2018-06-05T08:42:31.265Z,5060
2018-06-05T08:43:31.987Z,5032
2018-06-05T08:44:32.717Z,5112
2018-06-05T08:45:33.443Z,5168
2018-06-05T08:46:34.170Z,5316
2018-06-05T08:47:34.904Z,5472
2018-06-05T08:48:35.621Z,5420
2018-06-05T08:49:36.351Z,5400
2018-06-05T08:50:37.071Z,5300
2018-06-05T08:51:37.789Z,5212
2018-06-05T08:52:38.511Z,5224
2018-06-05T08:53:39.232Z,5292
2018-06-05T08:54:39.952Z,5420
2018-06-05T08:55:40.677Z,5564
2018-06-05T08:56:41.395Z,5600
2018-06-05T08:57:42.116Z,5604
2018-06-05T08:58:42.838Z,5532
2018-06-05T08:59:43.562Z,5412
2018-06-05T09:00:44.291Z,5276
2018-06-05T09:01:45.012Z,5196
2018-06-05T09:02:45.731Z,5164
2018-06-05T09:03:46.452Z,5120
2018-06-05T09:04:47.173Z,5084
2018-06-05T09:05:47.896Z,4980
2018-06-05T09:06:48.628Z,4924
2018-06-05T09:07:49.350Z,5008
2018-06-05T09:08:50.085Z,5124
2018-06-05T09:09:50.806Z,5312
2018-06-05T09:10:51.531Z,5548
2018-06-05T09:11:52.246Z,5496
2018-06-05T09:12:52.976Z,5420
2018-06-05T09:13:53.700Z,5508
2018-06-05T09:14:54.422Z,5532
2018-06-05T09:15:55.143Z,5444
2018-06-05T09:16:55.862Z,5420
2018-06-05T09:17:56.583Z,5544
2018-06-05T09:18:57.308Z,5508
2018-06-05T09:19:58.027Z,5404
2018-06-05T09:20:58.756Z,5288
2018-06-05T09:21:59.477Z,5152
2018-06-05T09:23:00.198Z,5096
2018-06-05T09:24:00.918Z,5076
2018-06-05T09:25:01.641Z,5032
2018-06-05T09:26:02.360Z,4992
2018-06-05T09:27:03.080Z,4992
2018-06-05T09:28:03.804Z,5052
2018-06-05T09:29:04.534Z,5144
2018-06-05T09:30:05.244Z,5244
2018-06-05T09:31:05.965Z,5304
2018-06-05T09:32:06.684Z,5292
2018-06-05T09:33:07.406Z,5268
2018-06-05T09:34:08.125Z,5204
2018-06-05T09:35:08.844Z,5244
2018-06-05T09:36:09.578Z,5240
2018-06-05T09:37:10.298Z,5180
2018-06-05T09:38:11.029Z,5096
2018-06-05T09:39:11.749Z,5132
2018-06-05T09:40:12.482Z,5216
2018-06-05T09:41:13.201Z,5296
2018-06-05T09:42:13.940Z,5284
2018-06-05T09:43:14.666Z,5388
2018-06-05T09:44:15.386Z,5572
2018-06-05T09:45:16.112Z,5916
2018-06-05T09:46:16.828Z,6080
2018-06-05T09:47:17.548Z,6056
2018-06-05T09:48:18.267Z,6020
2018-06-05T09:49:19.000Z,6128
2018-06-05T09:50:19.722Z,6216
2018-06-05T09:51:20.442Z,6152
2018-06-05T09:52:21.245Z,6044
2018-06-05T09:53:21.885Z,5928
2018-06-05T09:54:22.605Z,5900
2018-06-05T09:55:23.340Z,5932
2018-06-05T09:56:24.061Z,6004
2018-06-05T09:57:24.779Z,6080
2018-06-05T09:58:25.698Z,6164
2018-06-05T09:59:26.229Z,6220
2018-06-05T10:00:26.952Z,6216
2018-06-05T10:01:27.674Z,6164
2018-06-05T10:02:28.395Z,6108
2018-06-05T10:03:29.127Z,6160
2018-06-05T10:04:29.848Z,6284
2018-06-05T10:05:30.569Z,6372
2018-06-05T10:06:31.290Z,6416
2018-06-05T10:07:32.021Z,6568
2018-06-05T10:08:32.744Z,6832
2018-06-05T10:09:33.477Z,7080
2018-06-05T10:10:34.199Z,7288
2018-06-05T10:11:34.933Z,7564
2018-06-05T10:12:35.654Z,7860
2018-06-05T10:13:36.375Z,8188
2018-06-05T10:14:37.095Z,8296
2018-06-05T10:15:37.829Z,8276
2018-06-05T10:16:38.548Z,8108
2018-06-05T10:17:39.271Z,7704
2018-06-05T10:18:39.992Z,7296
2018-06-05T10:19:40.726Z,7000
2018-06-05T10:20:41.448Z,6816
2018-06-05T10:21:42.178Z,6764
2018-06-05T10:22:42.900Z,6784
2018-06-05T10:23:43.633Z,6788
2018-06-05T10:24:44.354Z,6856
2018-06-05T10:25:45.095Z,6996
2018-06-05T10:26:45.807Z,7220
2018-06-05T10:27:46.546Z,7420
2018-06-05T10:28:47.260Z,7540
2018-06-05T10:29:47.980Z,7632
2018-06-05T10:30:48.701Z,7544
2018-06-05T10:31:49.427Z,7400
2018-06-05T10:32:50.144Z,7408
2018-06-05T10:33:50.866Z,7592
2018-06-05T10:34:51.676Z,7924
2018-06-05T10:35:52.313Z,8216
2018-06-05T10:36:53.035Z,8388
2018-06-05T10:37:53.756Z,8612
2018-06-05T10:38:54.479Z,8808
2018-06-05T10:39:55.203Z,8760
2018-06-05T10:40:55.924Z,8560
2018-06-05T10:41:56.657Z,8328
2018-06-05T10:42:57.389Z,8128
2018-06-05T10:43:58.126Z,8008
2018-06-05T10:44:58.849Z,8016
2018-06-05T10:45:59.569Z,8012
2018-06-05T10:47:00.289Z,8028
2018-06-05T10:48:01.011Z,7924
2018-06-05T10:49:01.749Z,7788
2018-06-05T10:50:02.467Z,7736
2018-06-05T10:51:03.189Z,7796
2018-06-05T10:52:03.911Z,8132
2018-06-05T10:53:04.631Z,8536
2018-06-05T10:54:05.353Z,9024
2018-06-05T10:55:06.077Z,9140
2018-06-05T10:56:06.798Z,8956
2018-06-05T10:57:07.519Z,8784
2018-06-05T10:58:08.246Z,8664
2018-06-05T10:59:08.976Z,8552
2018-06-05T11:00:09.696Z,8416
2018-06-05T11:01:10.429Z,8332
2018-06-05T11:02:11.162Z,8300
2018-06-05T11:03:11.883Z,8220
2018-06-05T11:04:12.605Z,8284
2018-06-05T11:05:13.328Z,8612
2018-06-05T11:06:14.065Z,8824
2018-06-05T11:07:14.776Z,9016
2018-06-05T11:08:15.500Z,9120
2018-06-05T11:09:16.232Z,9196
2018-06-05T11:10:16.956Z,9468
2018-06-05T11:11:17.677Z,9808
2018-06-05T11:12:18.399Z,9876
2018-06-05T11:13:19.126Z,10064
2018-06-05T11:14:19.849Z,10356
2018-06-05T11:15:20.586Z,10780
2018-06-05T11:16:21.309Z,11352
2018-06-05T11:17:22.038Z,11956
2018-06-05T11:18:22.787Z,12012
2018-06-05T11:19:23.499Z,11760
2018-06-05T11:20:24.222Z,11508
2018-06-05T11:21:24.949Z,11124
2018-06-05T11:22:25.672Z,10708
2018-06-05T11:23:26.396Z,10324
2018-06-05T11:24:27.122Z,10048
2018-06-05T11:25:27.848Z,9768
2018-06-05T11:26:28.582Z,9476
2018-06-05T11:27:29.317Z,9204
2018-06-05T11:28:30.054Z,9064
2018-06-05T11:29:30.779Z,9080
2018-06-05T11:30:31.500Z,9080
2018-06-05T11:31:32.225Z,9084
2018-06-05T11:32:32.965Z,9120
2018-06-05T11:33:33.688Z,9176
2018-06-05T11:34:34.410Z,9220
2018-06-05T11:35:35.137Z,9140
2018-06-05T11:36:35.880Z,9024
2018-06-05T11:37:36.615Z,8976
2018-06-05T11:38:37.342Z,9052
2018-06-05T11:39:38.068Z,9164
2018-06-05T11:40:38.795Z,9176
2018-06-05T11:41:39.520Z,9168
2018-06-05T11:42:40.246Z,9172
2018-06-05T11:43:40.972Z,9200
2018-06-05T11:44:41.697Z,9352
2018-06-05T11:45:42.422Z,9492
2018-06-05T11:46:43.198Z,9628
2018-06-05T11:47:43.869Z,9780
2018-06-05T11:48:44.596Z,9960
2018-06-05T11:49:45.339Z,10188
2018-06-05T11:50:46.065Z,10532
2018-06-05T11:51:46.792Z,11116
2018-06-05T11:52:47.521Z,11656
2018-06-05T11:53:48.261Z,12492
2018-06-05T11:54:48.991Z,13436
2018-06-05T11:55:49.716Z,14256
2018-06-05T11:56:50.446Z,15668
2018-06-05T11:57:51.174Z,14500
2018-06-05T11:58:51.915Z,14092
2018-06-05T11:59:52.645Z,13808
2018-06-05T12:00:53.403Z,13144
2018-06-05T12:01:54.108Z,12676
2018-06-05T12:02:54.838Z,12176
2018-06-05T12:03:55.566Z,11684
2018-06-05T12:04:56.293Z,11016
2018-06-05T12:05:57.021Z,10672
2018-06-05T12:06:57.748Z,10512
2018-06-05T12:07:58.489Z,10524
2018-06-05T12:08:59.218Z,10620
2018-06-05T12:09:59.947Z,10684
2018-06-05T12:11:00.677Z,10736
2018-06-05T12:12:01.404Z,10648
2018-06-05T12:13:02.131Z,10572
2018-06-05T12:14:02.861Z,10516
2018-06-05T12:15:03.591Z,10272
2018-06-05T12:16:04.318Z,10088
2018-06-05T12:17:05.045Z,9888
2018-06-05T12:18:05.775Z,9608
2018-06-05T12:19:06.499Z,9288
2018-06-05T12:20:07.226Z,8908
2018-06-05T12:21:07.953Z,8588
2018-06-05T12:22:08.691Z,8424
2018-06-05T12:23:09.420Z,8524
2018-06-05T12:24:10.157Z,8684
2018-06-05T12:25:10.883Z,8700
2018-06-05T12:26:11.658Z,8444
2018-06-05T12:27:12.365Z,8232
2018-06-05T12:28:13.100Z,7940
2018-06-05T12:29:13.828Z,7728
2018-06-05T12:30:14.554Z,7752
2018-06-05T12:31:15.282Z,7948
2018-06-05T12:32:16.007Z,8100
2018-06-05T12:33:16.743Z,7840
2018-06-05T12:34:17.468Z,7476
2018-06-05T12:35:18.208Z,7388
2018-06-05T12:36:18.943Z,7480
2018-06-05T12:37:19.675Z,7536
2018-06-05T12:38:20.398Z,7520
2018-06-05T12:39:21.127Z,7564
2018-06-05T12:40:21.880Z,7768
2018-06-05T12:41:22.575Z,7844
2018-06-05T12:42:23.315Z,7788
2018-06-05T12:43:24.040Z,7740
2018-06-05T12:44:24.766Z,7720
2018-06-05T12:45:25.491Z,7820
2018-06-05T12:46:26.230Z,8068
2018-06-05T12:47:26.964Z,8156
2018-06-05T12:48:27.683Z,7992
2018-06-05T12:49:28.409Z,7808
2018-06-05T12:50:29.138Z,7916
2018-06-05T12:51:29.864Z,8096
2018-06-05T12:52:30.590Z,8424
2018-06-05T12:53:31.316Z,8728
2018-06-05T12:54:32.042Z,8792
2018-06-05T12:55:32.779Z,8568
2018-06-05T12:56:33.505Z,8380
2018-06-05T12:57:34.242Z,8380
2018-06-05T12:58:34.968Z,8632
2018-06-05T12:59:35.692Z,8888
2018-06-05T13:00:36.430Z,9108
2018-06-05T13:01:37.155Z,9364
2018-06-05T13:02:37.885Z,9572
2018-06-05T13:03:38.608Z,9916
2018-06-05T13:04:39.347Z,10228
2018-06-05T13:05:40.063Z,10388
2018-06-05T13:06:40.795Z,10700
2018-06-05T13:07:41.515Z,10900
2018-06-05T13:08:42.241Z,11192
2018-06-05T13:09:42.981Z,11840
2018-06-05T13:10:43.709Z,12396
2018-06-05T13:11:44.486Z,12960
2018-06-05T13:12:45.164Z,12896
2018-06-05T13:13:45.891Z,12144
2018-06-05T13:14:46.619Z,11216
2018-06-05T13:15:47.347Z,10500
2018-06-05T13:16:48.078Z,9956
2018-06-05T13:17:48.801Z,9584
2018-06-05T13:18:49.538Z,9268
2018-06-05T13:19:50.265Z,9028
2018-06-05T13:20:50.992Z,8856
2018-06-05T13:21:51.719Z,8740
2018-06-05T13:22:52.571Z,8716
2018-06-05T13:23:53.186Z,8880
2018-06-05T13:24:53.909Z,9052
2018-06-05T13:25:54.638Z,9236
2018-06-05T13:26:55.374Z,9444
2018-06-05T13:27:56.101Z,9564
2018-06-05T13:28:56.842Z,9788
2018-06-05T13:29:57.631Z,10012
2018-06-05T13:30:58.306Z,10136
2018-06-05T13:31:59.036Z,10248
2018-06-05T13:32:59.764Z,10168
2018-06-05T13:34:00.490Z,10176
2018-06-05T13:35:01.263Z,10232
2018-06-05T13:36:01.958Z,10368
2018-06-05T13:37:02.696Z,10664
2018-06-05T13:38:03.437Z,10912
2018-06-05T13:39:04.167Z,11172
2018-06-05T13:40:04.894Z,11276
2018-06-05T13:41:05.624Z,11416
2018-06-05T13:42:06.352Z,11612
2018-06-05T13:43:07.081Z,11812
2018-06-05T13:44:07.895Z,12028
2018-06-05T13:45:08.538Z,12144
2018-06-05T13:46:09.276Z,12288
2018-06-05T13:47:10.003Z,12212
2018-06-05T13:48:10.732Z,11776
2018-06-05T13:49:11.471Z,11592